sensor_id;sensor_type;location;lat;lon;timestamp;pressure;altitude;pressure_sealevel;temperature;humidity
20115;BME280;10218;42.874;25.320;2023-06-26T00:01:32;96876.84;;;20.59;100.00
20115;BME280;10218;42.874;25.320;2023-06-26T00:04:01;96883.25;;;20.81;100.00
20115;BME280;10218;42.874;25.320;2023-06-26T00:06:28;96874.88;;;20.82;100.00
20115;BME280;10218;42.874;25.320;2023-06-26T00:08:55;96874.06;;;20.82;100.00
20115;BME280;10218;42.874;25.320;2023-06-26T00:11:23;96886.13;;;20.74;100.00
20115;BME280;10218;42.874;25.320;2023-06-26T00:13:50;96880.81;;;20.96;100.00
20115;BME280;10218;42.874;25.320;2023-06-26T00:16:17;96867.19;;;20.79;100.00
20115;BME280;10218;42.874;25.320;2023-06-26T00:18:44;96873.88;;;20.88;100.00
20115;BME280;10218;42.874;25.320;2023-06-26T00:21:11;96870.25;;;20.83;100.00
20115;BME280;10218;42.874;25.320;2023-06-26T00:23:38;96880.59;;;20.69;100.00
20115;BME280;10218;42.874;25.320;2023-06-26T00:26:06;96875.09;;;20.53;100.00
20115;BME280;10218;42.874;25.320;2023-06-26T00:28:33;96873.75;;;20.67;100.00
20115;BME280;10218;42.874;25.320;2023-06-26T00:31:00;96864.00;;;20.82;100.00
20115;BME280;10218;42.874;25.320;2023-06-26T00:33:28;96870.66;;;20.75;100.00
20115;BME280;10218;42.874;25.320;2023-06-26T00:35:56;96871.75;;;20.90;100.00
20115;BME280;10218;42.874;25.320;2023-06-26T00:38:23;96863.81;;;20.72;100.00
20115;BME280;10218;42.874;25.320;2023-06-26T00:40:50;96875.75;;;20.71;100.00
20115;BME280;10218;42.874;25.320;2023-06-26T00:43:18;96866.72;;;20.99;100.00
20115;BME280;10218;42.874;25.320;2023-06-26T00:45:45;96869.81;;;20.74;100.00
20115;BME280;10218;42.874;25.320;2023-06-26T00:48:13;96866.50;;;21.01;100.00
20115;BME280;10218;42.874;25.320;2023-06-26T00:50:41;96856.19;;;20.58;100.00
20115;BME280;10218;42.874;25.320;2023-06-26T00:53:12;96865.72;;;20.72;100.00
20115;BME280;10218;42.874;25.320;2023-06-26T00:55:39;96858.25;;;20.96;100.00
20115;BME280;10218;42.874;25.320;2023-06-26T00:58:08;96853.37;;;20.53;100.00
20115;BME280;10218;42.874;25.320;2023-06-26T01:00:35;96861.22;;;20.94;100.00
20115;BME280;10218;42.874;25.320;2023-06-26T01:03:02;96850.78;;;21.03;100.00
20115;BME280;10218;42.874;25.320;2023-06-26T01:05:29;96845.75;;;20.95;100.00
20115;BME280;10218;42.874;25.320;2023-06-26T01:07:57;96847.59;;;20.61;100.00
20115;BME280;10218;42.874;25.320;2023-06-26T01:10:26;96850.03;;;20.90;100.00
20115;BME280;10218;42.874;25.320;2023-06-26T01:12:57;96840.94;;;20.68;100.00
20115;BME280;10218;42.874;25.320;2023-06-26T01:15:24;96847.25;;;21.02;100.00
20115;BME280;10218;42.874;25.320;2023-06-26T01:17:52;96851.00;;;20.84;100.00
20115;BME280;10218;42.874;25.320;2023-06-26T01:20:19;96843.91;;;20.83;100.00
20115;BME280;10218;42.874;25.320;2023-06-26T01:25:35;96847.88;;;20.76;100.00
20115;BME280;10218;42.874;25.320;2023-06-26T01:28:06;96841.47;;;20.54;100.00
20115;BME280;10218;42.874;25.320;2023-06-26T01:30:41;96852.28;;;20.65;100.00
20115;BME280;10218;42.874;25.320;2023-06-26T01:33:08;96840.47;;;20.88;100.00
20115;BME280;10218;42.874;25.320;2023-06-26T01:35:36;96842.72;;;20.91;100.00
20115;BME280;10218;42.874;25.320;2023-06-26T01:38:20;96840.13;;;20.39;100.00
20115;BME280;10218;42.874;25.320;2023-06-26T01:40:50;96842.84;;;20.39;100.00
20115;BME280;10218;42.874;25.320;2023-06-26T01:46:22;96842.59;;;20.69;100.00
20115;BME280;10218;42.874;25.320;2023-06-26T01:48:59;96845.87;;;20.43;100.00
20115;BME280;10218;42.874;25.320;2023-06-26T01:51:36;96843.50;;;20.75;100.00
20115;BME280;10218;42.874;25.320;2023-06-26T01:54:09;96841.81;;;20.57;100.00
20115;BME280;10218;42.874;25.320;2023-06-26T01:56:38;96848.88;;;20.86;100.00
20115;BME280;10218;42.874;25.320;2023-06-26T01:59:05;96851.31;;;20.71;100.00
20115;BME280;10218;42.874;25.320;2023-06-26T02:01:34;96856.56;;;20.78;100.00
20115;BME280;10218;42.874;25.320;2023-06-26T02:04:01;96839.50;;;20.49;100.00
20115;BME280;10218;42.874;25.320;2023-06-26T02:06:30;96855.19;;;20.47;100.00
20115;BME280;10218;42.874;25.320;2023-06-26T02:08:58;96855.31;;;20.97;100.00
20115;BME280;10218;42.874;25.320;2023-06-26T02:11:25;96843.94;;;20.55;100.00
20115;BME280;10218;42.874;25.320;2023-06-26T02:13:52;96846.03;;;20.65;100.00
20115;BME280;10218;42.874;25.320;2023-06-26T02:16:19;96850.00;;;20.45;100.00
20115;BME280;10218;42.874;25.320;2023-06-26T02:18:47;96843.06;;;20.38;100.00
20115;BME280;10218;42.874;25.320;2023-06-26T02:21:14;96845.06;;;20.71;100.00
20115;BME280;10218;42.874;25.320;2023-06-26T02:23:41;96846.50;;;20.90;100.00
20115;BME280;10218;42.874;25.320;2023-06-26T02:26:08;96841.78;;;20.85;100.00
20115;BME280;10218;42.874;25.320;2023-06-26T02:28:35;96841.47;;;20.99;100.00
20115;BME280;10218;42.874;25.320;2023-06-26T02:31:02;96826.16;;;20.76;100.00
20115;BME280;10218;42.874;25.320;2023-06-26T02:33:31;96838.37;;;21.07;100.00
20115;BME280;10218;42.874;25.320;2023-06-26T02:35:58;96841.91;;;20.62;100.00
20115;BME280;10218;42.874;25.320;2023-06-26T02:38:25;96835.22;;;20.81;100.00
20115;BME280;10218;42.874;25.320;2023-06-26T02:40:53;96823.63;;;20.86;100.00
20115;BME280;10218;42.874;25.320;2023-06-26T02:43:20;96824.34;;;20.81;100.00
20115;BME280;10218;42.874;25.320;2023-06-26T02:45:47;96835.59;;;20.73;100.00
20115;BME280;10218;42.874;25.320;2023-06-26T02:48:14;96826.16;;;20.76;100.00
20115;BME280;10218;42.874;25.320;2023-06-26T02:50:41;96835.63;;;20.90;100.00
20115;BME280;10218;42.874;25.320;2023-06-26T02:53:12;96837.84;;;20.76;100.00
20115;BME280;10218;42.874;25.320;2023-06-26T02:55:40;96840.75;;;20.58;100.00
20115;BME280;10218;42.874;25.320;2023-06-26T02:58:08;96849.72;;;20.87;100.00
20115;BME280;10218;42.874;25.320;2023-06-26T03:00:35;96844.03;;;21.05;100.00
20115;BME280;10218;42.874;25.320;2023-06-26T03:03:11;96839.25;;;20.96;100.00
20115;BME280;10218;42.874;25.320;2023-06-26T03:05:39;96828.78;;;20.71;100.00
20115;BME280;10218;42.874;25.320;2023-06-26T03:08:06;96828.28;;;20.74;100.00
20115;BME280;10218;42.874;25.320;2023-06-26T03:10:34;96845.91;;;20.88;100.00
20115;BME280;10218;42.874;25.320;2023-06-26T03:13:01;96841.56;;;20.59;100.00
20115;BME280;10218;42.874;25.320;2023-06-26T03:15:28;96845.56;;;20.84;100.00
20115;BME280;10218;42.874;25.320;2023-06-26T03:17:55;96850.06;;;21.07;100.00
20115;BME280;10218;42.874;25.320;2023-06-26T03:20:22;96850.06;;;21.24;100.00
20115;BME280;10218;42.874;25.320;2023-06-26T03:22:49;96852.47;;;21.20;100.00
20115;BME280;10218;42.874;25.320;2023-06-26T03:25:18;96851.31;;;21.16;100.00
20115;BME280;10218;42.874;25.320;2023-06-26T03:27:46;96859.59;;;21.10;100.00
20115;BME280;10218;42.874;25.320;2023-06-26T03:30:13;96852.25;;;20.93;100.00
20115;BME280;10218;42.874;25.320;2023-06-26T03:32:41;96859.66;;;20.98;100.00
20115;BME280;10218;42.874;25.320;2023-06-26T03:35:08;96848.44;;;21.23;100.00
20115;BME280;10218;42.874;25.320;2023-06-26T03:37:36;96854.59;;;20.73;100.00
20115;BME280;10218;42.874;25.320;2023-06-26T03:40:04;96854.41;;;20.91;100.00
20115;BME280;10218;42.874;25.320;2023-06-26T03:42:32;96849.69;;;21.04;100.00
20115;BME280;10218;42.874;25.320;2023-06-26T03:44:59;96850.72;;;20.69;100.00
20115;BME280;10218;42.874;25.320;2023-06-26T03:47:27;96848.69;;;20.76;100.00
20115;BME280;10218;42.874;25.320;2023-06-26T03:49:55;96858.97;;;20.46;100.00
20115;BME280;10218;42.874;25.320;2023-06-26T03:52:22;96850.91;;;20.79;100.00
20115;BME280;10218;42.874;25.320;2023-06-26T03:54:49;96851.00;;;20.84;100.00
20115;BME280;10218;42.874;25.320;2023-06-26T03:57:17;96833.41;;;21.04;100.00
20115;BME280;10218;42.874;25.320;2023-06-26T03:59:45;96844.91;;;20.94;100.00
20115;BME280;10218;42.874;25.320;2023-06-26T04:02:14;96837.69;;;21.00;100.00
20115;BME280;10218;42.874;25.320;2023-06-26T04:04:42;96849.06;;;20.97;100.00
20115;BME280;10218;42.874;25.320;2023-06-26T04:07:09;96840.72;;;20.86;100.00
20115;BME280;10218;42.874;25.320;2023-06-26T04:09:36;96849.75;;;20.47;100.00
20115;BME280;10218;42.874;25.320;2023-06-26T04:12:03;96850.00;;;20.74;100.00
20115;BME280;10218;42.874;25.320;2023-06-26T04:14:30;96843.56;;;20.63;100.00
20115;BME280;10218;42.874;25.320;2023-06-26T04:16:58;96851.84;;;21.02;100.00
20115;BME280;10218;42.874;25.320;2023-06-26T04:19:27;96853.69;;;21.29;100.00
20115;BME280;10218;42.874;25.320;2023-06-26T04:21:54;96849.00;;;21.25;100.00
20115;BME280;10218;42.874;25.320;2023-06-26T04:24:21;96848.19;;;21.24;100.00
20115;BME280;10218;42.874;25.320;2023-06-26T04:26:48;96842.00;;;21.46;100.00
20115;BME280;10218;42.874;25.320;2023-06-26T04:29:15;96839.28;;;21.62;100.00
20115;BME280;10218;42.874;25.320;2023-06-26T04:31:42;96840.25;;;21.56;100.00
20115;BME280;10218;42.874;25.320;2023-06-26T04:34:13;96843.56;;;21.58;100.00
20115;BME280;10218;42.874;25.320;2023-06-26T04:36:40;96854.69;;;21.40;100.00
20115;BME280;10218;42.874;25.320;2023-06-26T04:39:07;96862.03;;;20.95;100.00
20115;BME280;10218;42.874;25.320;2023-06-26T04:41:35;96855.50;;;20.79;100.00
20115;BME280;10218;42.874;25.320;2023-06-26T04:44:02;96861.59;;;20.69;100.00
20115;BME280;10218;42.874;25.320;2023-06-26T04:46:29;96862.75;;;21.18;100.00
20115;BME280;10218;42.874;25.320;2023-06-26T04:48:56;96865.88;;;21.44;100.00
20115;BME280;10218;42.874;25.320;2023-06-26T04:51:25;96858.63;;;21.66;100.00
20115;BME280;10218;42.874;25.320;2023-06-26T04:53:53;96861.37;;;21.88;100.00
20115;BME280;10218;42.874;25.320;2023-06-26T04:56:21;96858.09;;;21.86;100.00
20115;BME280;10218;42.874;25.320;2023-06-26T04:58:48;96869.66;;;21.59;100.00
20115;BME280;10218;42.874;25.320;2023-06-26T05:01:15;96875.44;;;21.46;100.00
20115;BME280;10218;42.874;25.320;2023-06-26T05:03:42;96880.03;;;21.62;100.00
20115;BME280;10218;42.874;25.320;2023-06-26T05:06:09;96878.03;;;21.74;100.00
20115;BME280;10218;42.874;25.320;2023-06-26T05:08:36;96887.12;;;21.30;100.00
20115;BME280;10218;42.874;25.320;2023-06-26T05:11:04;96880.88;;;21.46;100.00
20115;BME280;10218;42.874;25.320;2023-06-26T05:13:31;96896.25;;;20.79;100.00
20115;BME280;10218;42.874;25.320;2023-06-26T05:15:58;96892.31;;;20.86;100.00
20115;BME280;10218;42.874;25.320;2023-06-26T05:18:25;96898.59;;;21.04;100.00
20115;BME280;10218;42.874;25.320;2023-06-26T05:20:52;96895.59;;;20.88;100.00
20115;BME280;10218;42.874;25.320;2023-06-26T05:23:20;96899.16;;;20.61;100.00
20115;BME280;10218;42.874;25.320;2023-06-26T05:25:48;96887.34;;;21.12;100.00
20115;BME280;10218;42.874;25.320;2023-06-26T05:28:17;96889.09;;;21.34;100.00
20115;BME280;10218;42.874;25.320;2023-06-26T05:30:44;96891.59;;;21.36;100.00
20115;BME280;10218;42.874;25.320;2023-06-26T05:33:12;96886.81;;;21.43;100.00
20115;BME280;10218;42.874;25.320;2023-06-26T05:35:42;96889.75;;;21.25;100.00
20115;BME280;10218;42.874;25.320;2023-06-26T05:38:10;96897.53;;;21.05;100.00
20115;BME280;10218;42.874;25.320;2023-06-26T05:40:38;96904.03;;;21.32;100.00
20115;BME280;10218;42.874;25.320;2023-06-26T05:43:07;96903.62;;;21.12;100.00
20115;BME280;10218;42.874;25.320;2023-06-26T05:45:34;96910.84;;;21.18;100.00
20115;BME280;10218;42.874;25.320;2023-06-26T05:48:01;96899.69;;;21.03;100.00
20115;BME280;10218;42.874;25.320;2023-06-26T05:50:29;96896.50;;;21.39;100.00
20115;BME280;10218;42.874;25.320;2023-06-26T05:52:56;96898.59;;;21.32;100.00
20115;BME280;10218;42.874;25.320;2023-06-26T05:55:24;96903.19;;;21.03;100.00
20115;BME280;10218;42.874;25.320;2023-06-26T05:57:52;96902.97;;;21.33;100.00
20115;BME280;10218;42.874;25.320;2023-06-26T06:00:19;96898.59;;;20.87;100.00
20115;BME280;10218;42.874;25.320;2023-06-26T06:02:47;96915.09;;;21.14;100.00
20115;BME280;10218;42.874;25.320;2023-06-26T06:05:14;96905.53;;;21.11;100.00
20115;BME280;10218;42.874;25.320;2023-06-26T06:07:41;96913.44;;;21.13;100.00
20115;BME280;10218;42.874;25.320;2023-06-26T06:10:08;96909.94;;;21.29;100.00
20115;BME280;10218;42.874;25.320;2023-06-26T06:12:35;96908.13;;;21.34;100.00
20115;BME280;10218;42.874;25.320;2023-06-26T06:15:02;96915.94;;;21.31;100.00
20115;BME280;10218;42.874;25.320;2023-06-26T06:17:30;96917.88;;;21.02;100.00
20115;BME280;10218;42.874;25.320;2023-06-26T06:19:57;96916.00;;;20.63;100.00
20115;BME280;10218;42.874;25.320;2023-06-26T06:22:24;96906.66;;;20.70;100.00
20115;BME280;10218;42.874;25.320;2023-06-26T06:24:51;96911.91;;;21.17;100.00
20115;BME280;10218;42.874;25.320;2023-06-26T06:27:18;96912.81;;;20.94;100.00
20115;BME280;10218;42.874;25.320;2023-06-26T06:29:45;96917.34;;;20.48;100.00
20115;BME280;10218;42.874;25.320;2023-06-26T06:32:13;96917.75;;;20.69;100.00
20115;BME280;10218;42.874;25.320;2023-06-26T06:34:40;96915.59;;;20.82;100.00
20115;BME280;10218;42.874;25.320;2023-06-26T06:37:07;96924.78;;;20.53;100.00
20115;BME280;10218;42.874;25.320;2023-06-26T06:39:34;96926.91;;;20.51;100.00
20115;BME280;10218;42.874;25.320;2023-06-26T06:42:01;96924.72;;;20.76;100.00
20115;BME280;10218;42.874;25.320;2023-06-26T06:44:29;96920.13;;;20.93;100.00
20115;BME280;10218;42.874;25.320;2023-06-26T06:46:57;96911.59;;;21.30;100.00
20115;BME280;10218;42.874;25.320;2023-06-26T06:49:24;96919.56;;;20.91;100.00
20115;BME280;10218;42.874;25.320;2023-06-26T06:51:51;96925.72;;;20.87;100.00
20115;BME280;10218;42.874;25.320;2023-06-26T06:54:19;96918.59;;;21.26;100.00
20115;BME280;10218;42.874;25.320;2023-06-26T06:56:46;96904.38;;;20.51;100.00
20115;BME280;10218;42.874;25.320;2023-06-26T06:59:13;96923.25;;;20.85;100.00
20115;BME280;10218;42.874;25.320;2023-06-26T07:01:41;96924.50;;;20.95;100.00
20115;BME280;10218;42.874;25.320;2023-06-26T07:04:08;96924.59;;;21.00;100.00
20115;BME280;10218;42.874;25.320;2023-06-26T07:06:35;96923.72;;;21.11;100.00
20115;BME280;10218;42.874;25.320;2023-06-26T07:09:02;96925.12;;;20.85;100.00
20115;BME280;10218;42.874;25.320;2023-06-26T07:11:29;96924.16;;;21.19;100.00
20115;BME280;10218;42.874;25.320;2023-06-26T07:13:56;96921.19;;;20.64;100.00
20115;BME280;10218;42.874;25.320;2023-06-26T07:16:24;96927.66;;;20.35;100.00
20115;BME280;10218;42.874;25.320;2023-06-26T07:18:51;96935.00;;;20.63;100.00
20115;BME280;10218;42.874;25.320;2023-06-26T07:21:18;96933.41;;;21.35;100.00
20115;BME280;10218;42.874;25.320;2023-06-26T07:23:46;96932.38;;;21.08;100.00
20115;BME280;10218;42.874;25.320;2023-06-26T07:26:14;96922.72;;;21.45;100.00
20115;BME280;10218;42.874;25.320;2023-06-26T07:28:42;96922.13;;;20.98;100.00
20115;BME280;10218;42.874;25.320;2023-06-26T07:31:09;96929.56;;;21.03;100.00
20115;BME280;10218;42.874;25.320;2023-06-26T07:33:36;96933.31;;;20.45;100.00
20115;BME280;10218;42.874;25.320;2023-06-26T07:36:04;96941.44;;;20.45;100.00
20115;BME280;10218;42.874;25.320;2023-06-26T07:38:31;96932.84;;;21.05;100.00
20115;BME280;10218;42.874;25.320;2023-06-26T07:40:59;96943.97;;;21.31;100.00
20115;BME280;10218;42.874;25.320;2023-06-26T07:43:26;96939.34;;;20.75;100.00
20115;BME280;10218;42.874;25.320;2023-06-26T07:45:53;96945.19;;;20.56;100.00
20115;BME280;10218;42.874;25.320;2023-06-26T07:48:20;96944.81;;;20.52;100.00
20115;BME280;10218;42.874;25.320;2023-06-26T07:50:47;96946.75;;;20.80;100.00
20115;BME280;10218;42.874;25.320;2023-06-26T07:53:15;96937.56;;;20.81;100.00
20115;BME280;10218;42.874;25.320;2023-06-26T07:55:42;96948.16;;;21.22;100.00
20115;BME280;10218;42.874;25.320;2023-06-26T07:58:09;96950.28;;;21.09;100.00
20115;BME280;10218;42.874;25.320;2023-06-26T08:00:37;96955.94;;;21.19;100.00
20115;BME280;10218;42.874;25.320;2023-06-26T08:03:05;96955.28;;;21.28;100.00
20115;BME280;10218;42.874;25.320;2023-06-26T08:05:33;96962.75;;;21.33;100.00
20115;BME280;10218;42.874;25.320;2023-06-26T08:08:00;96968.66;;;21.30;100.00
20115;BME280;10218;42.874;25.320;2023-06-26T08:10:29;96964.38;;;21.34;100.00
20115;BME280;10218;42.874;25.320;2023-06-26T08:12:57;96970.88;;;21.05;100.00
20115;BME280;10218;42.874;25.320;2023-06-26T08:15:25;96956.53;;;21.21;100.00
20115;BME280;10218;42.874;25.320;2023-06-26T08:17:52;96950.78;;;21.17;100.00
20115;BME280;10218;42.874;25.320;2023-06-26T08:20:19;96955.19;;;21.23;100.00
20115;BME280;10218;42.874;25.320;2023-06-26T08:22:47;96959.03;;;21.39;100.00
20115;BME280;10218;42.874;25.320;2023-06-26T08:25:16;96957.97;;;21.12;100.00
20115;BME280;10218;42.874;25.320;2023-06-26T08:27:43;96957.69;;;20.97;100.00
20115;BME280;10218;42.874;25.320;2023-06-26T08:30:11;96974.31;;;21.00;100.00
20115;BME280;10218;42.874;25.320;2023-06-26T08:32:38;96966.31;;;20.93;100.00
20115;BME280;10218;42.874;25.320;2023-06-26T08:35:06;96967.59;;;21.03;100.00
20115;BME280;10218;42.874;25.320;2023-06-26T08:37:33;96966.41;;;20.99;100.00
20115;BME280;10218;42.874;25.320;2023-06-26T08:40:01;96969.22;;;21.94;100.00
20115;BME280;10218;42.874;25.320;2023-06-26T08:42:28;96956.56;;;21.54;100.00
20115;BME280;10218;42.874;25.320;2023-06-26T08:44:55;96968.78;;;21.68;100.00
20115;BME280;10218;42.874;25.320;2023-06-26T08:47:27;96971.56;;;21.12;100.00
20115;BME280;10218;42.874;25.320;2023-06-26T08:50:10;96979.56;;;20.78;100.00
20115;BME280;10218;42.874;25.320;2023-06-26T08:52:54;96981.34;;;21.13;100.00
20115;BME280;10218;42.874;25.320;2023-06-26T08:55:23;96977.94;;;21.06;100.00
20115;BME280;10218;42.874;25.320;2023-06-26T08:57:53;96982.28;;;20.38;100.00
20115;BME280;10218;42.874;25.320;2023-06-26T09:00:20;96993.19;;;21.07;100.00
20115;BME280;10218;42.874;25.320;2023-06-26T09:02:47;96980.66;;;20.77;100.00
20115;BME280;10218;42.874;25.320;2023-06-26T09:05:15;96975.16;;;20.49;100.00
20115;BME280;10218;42.874;25.320;2023-06-26T09:07:42;96973.38;;;20.95;100.00
20115;BME280;10218;42.874;25.320;2023-06-26T09:10:10;96973.09;;;21.36;100.00
20115;BME280;10218;42.874;25.320;2023-06-26T09:12:37;96961.91;;;21.49;100.00
20115;BME280;10218;42.874;25.320;2023-06-26T09:15:06;96964.31;;;21.62;100.00
20115;BME280;10218;42.874;25.320;2023-06-26T09:17:39;96970.66;;;21.51;100.00
20115;BME280;10218;42.874;25.320;2023-06-26T09:20:10;96956.00;;;22.19;100.00
20115;BME280;10218;42.874;25.320;2023-06-26T09:22:38;96955.97;;;21.69;100.00
20115;BME280;10218;42.874;25.320;2023-06-26T09:25:06;96946.16;;;22.78;100.00
20115;BME280;10218;42.874;25.320;2023-06-26T09:27:35;96945.63;;;22.81;100.00
20115;BME280;10218;42.874;25.320;2023-06-26T09:30:03;96939.03;;;22.99;100.00
20115;BME280;10218;42.874;25.320;2023-06-26T09:32:30;96934.72;;;23.30;100.00
20115;BME280;10218;42.874;25.320;2023-06-26T09:34:57;96943.00;;;23.13;100.00
20115;BME280;10218;42.874;25.320;2023-06-26T09:37:26;96942.38;;;23.60;100.00
20115;BME280;10218;42.874;25.320;2023-06-26T09:39:53;96937.19;;;23.31;100.00
20115;BME280;10218;42.874;25.320;2023-06-26T09:42:21;96942.28;;;24.18;100.00
20115;BME280;10218;42.874;25.320;2023-06-26T09:44:48;96932.38;;;25.27;100.00
20115;BME280;10218;42.874;25.320;2023-06-26T09:47:16;96940.06;;;25.60;100.00
20115;BME280;10218;42.874;25.320;2023-06-26T09:49:45;96943.75;;;24.36;100.00
20115;BME280;10218;42.874;25.320;2023-06-26T09:52:16;96940.62;;;25.82;100.00
20115;BME280;10218;42.874;25.320;2023-06-26T09:54:43;96932.91;;;25.24;100.00
20115;BME280;10218;42.874;25.320;2023-06-26T09:57:14;96931.31;;;25.53;100.00
20115;BME280;10218;42.874;25.320;2023-06-26T09:59:42;96923.03;;;25.02;100.00
20115;BME280;10218;42.874;25.320;2023-06-26T10:02:11;96928.00;;;25.31;100.00
20115;BME280;10218;42.874;25.320;2023-06-26T10:04:38;96929.44;;;25.74;100.00
20115;BME280;10218;42.874;25.320;2023-06-26T10:07:09;96925.19;;;24.95;100.00
20115;BME280;10218;42.874;25.320;2023-06-26T10:09:41;96924.13;;;24.44;100.00
20115;BME280;10218;42.874;25.320;2023-06-26T10:12:31;96936.97;;;24.02;100.00
20115;BME280;10218;42.874;25.320;2023-06-26T10:14:58;96924.41;;;24.38;100.00
20115;BME280;10218;42.874;25.320;2023-06-26T10:17:32;96924.00;;;24.71;100.00
20115;BME280;10218;42.874;25.320;2023-06-26T10:20:03;96916.00;;;24.59;100.00
20115;BME280;10218;42.874;25.320;2023-06-26T10:22:36;96922.31;;;24.65;100.00
20115;BME280;10218;42.874;25.320;2023-06-26T10:25:06;96919.84;;;25.76;100.00
20115;BME280;10218;42.874;25.320;2023-06-26T10:27:39;96909.66;;;26.07;100.00
20115;BME280;10218;42.874;25.320;2023-06-26T10:30:12;96914.25;;;26.42;100.00
20115;BME280;10218;42.874;25.320;2023-06-26T10:32:41;96912.09;;;26.39;100.00
20115;BME280;10218;42.874;25.320;2023-06-26T10:35:10;96905.19;;;26.52;100.00
20115;BME280;10218;42.874;25.320;2023-06-26T10:37:48;96900.31;;;26.38;100.00
20115;BME280;10218;42.874;25.320;2023-06-26T10:40:25;96912.63;;;26.46;100.00
20115;BME280;10218;42.874;25.320;2023-06-26T10:43:06;96907.66;;;26.53;100.00
20115;BME280;10218;42.874;25.320;2023-06-26T10:45:37;96905.31;;;27.74;100.00
20115;BME280;10218;42.874;25.320;2023-06-26T10:48:09;96904.19;;;27.02;100.00
20115;BME280;10218;42.874;25.320;2023-06-26T10:50:36;96897.84;;;26.37;100.00
20115;BME280;10218;42.874;25.320;2023-06-26T10:55:50;96895.72;;;26.93;100.00
20115;BME280;10218;42.874;25.320;2023-06-26T11:01:25;96892.22;;;26.72;100.00
20115;BME280;10218;42.874;25.320;2023-06-26T11:04:06;96879.44;;;27.51;100.00
20115;BME280;10218;42.874;25.320;2023-06-26T11:06:35;96880.66;;;26.86;100.00
20115;BME280;10218;42.874;25.320;2023-06-26T11:14:32;96878.63;;;27.45;100.00
20115;BME280;10218;42.874;25.320;2023-06-26T11:17:02;96879.72;;;27.49;100.00
20115;BME280;10218;42.874;25.320;2023-06-26T11:19:30;96873.59;;;25.95;100.00
20115;BME280;10218;42.874;25.320;2023-06-26T11:21:58;96870.53;;;27.30;100.00
20115;BME280;10218;42.874;25.320;2023-06-26T11:24:26;96869.37;;;27.99;100.00
20115;BME280;10218;42.874;25.320;2023-06-26T11:26:53;96872.50;;;27.58;100.00
20115;BME280;10218;42.874;25.320;2023-06-26T11:29:20;96853.84;;;28.42;100.00
20115;BME280;10218;42.874;25.320;2023-06-26T11:31:47;96859.56;;;28.45;100.00
20115;BME280;10218;42.874;25.320;2023-06-26T11:34:14;96865.72;;;27.80;100.00
20115;BME280;10218;42.874;25.320;2023-06-26T11:36:42;96859.13;;;28.81;100.00
20115;BME280;10218;42.874;25.320;2023-06-26T11:39:12;96862.81;;;30.57;100.00
20115;BME280;10218;42.874;25.320;2023-06-26T11:41:40;96856.44;;;30.29;100.00
20115;BME280;10218;42.874;25.320;2023-06-26T11:44:09;96860.72;;;30.76;98.05
20115;BME280;10218;42.874;25.320;2023-06-26T11:46:38;96851.81;;;31.07;100.00
20115;BME280;10218;42.874;25.320;2023-06-26T11:49:06;96856.75;;;30.69;95.43
20115;BME280;10218;42.874;25.320;2023-06-26T11:51:34;96844.78;;;29.91;100.00
20115;BME280;10218;42.874;25.320;2023-06-26T11:54:03;96851.00;;;29.97;100.00
20115;BME280;10218;42.874;25.320;2023-06-26T11:56:31;96850.31;;;30.59;100.00
20115;BME280;10218;42.874;25.320;2023-06-26T12:01:45;96849.69;;;28.21;100.00
20115;BME280;10218;42.874;25.320;2023-06-26T12:04:16;96856.22;;;30.26;100.00
20115;BME280;10218;42.874;25.320;2023-06-26T12:06:47;96853.19;;;28.74;100.00
20115;BME280;10218;42.874;25.320;2023-06-26T12:09:17;96857.03;;;28.25;100.00
20115;BME280;10218;42.874;25.320;2023-06-26T12:11:47;96843.28;;;30.26;100.00
20115;BME280;10218;42.874;25.320;2023-06-26T12:14:17;96846.47;;;27.85;100.00
20115;BME280;10218;42.874;25.320;2023-06-26T12:16:44;96835.72;;;28.17;100.00
20115;BME280;10218;42.874;25.320;2023-06-26T12:19:11;96836.38;;;28.75;100.00
20115;BME280;10218;42.874;25.320;2023-06-26T12:24:15;96833.19;;;28.44;100.00
20115;BME280;10218;42.874;25.320;2023-06-26T12:26:45;96843.94;;;27.93;100.00
20115;BME280;10218;42.874;25.320;2023-06-26T12:29:15;96848.13;;;26.69;100.00
20115;BME280;10218;42.874;25.320;2023-06-26T12:31:46;96839.84;;;26.79;100.00
20115;BME280;10218;42.874;25.320;2023-06-26T12:34:20;96836.50;;;26.38;100.00
20115;BME280;10218;42.874;25.320;2023-06-26T12:36:49;96845.31;;;26.84;100.00
20115;BME280;10218;42.874;25.320;2023-06-26T12:39:18;96861.44;;;26.16;100.00
20115;BME280;10218;42.874;25.320;2023-06-26T12:41:51;96875.53;;;25.64;100.00
20115;BME280;10218;42.874;25.320;2023-06-26T12:44:29;96874.78;;;24.61;100.00
20115;BME280;10218;42.874;25.320;2023-06-26T12:46:58;96878.66;;;24.75;100.00
20115;BME280;10218;42.874;25.320;2023-06-26T12:49:45;96864.56;;;25.29;100.00
20115;BME280;10218;42.874;25.320;2023-06-26T12:52:14;96884.78;;;25.23;100.00
20115;BME280;10218;42.874;25.320;2023-06-26T12:54:44;96864.28;;;25.25;100.00
20115;BME280;10218;42.874;25.320;2023-06-26T12:57:13;96875.31;;;24.01;100.00
20115;BME280;10218;42.874;25.320;2023-06-26T12:59:41;96885.06;;;23.92;100.00
20115;BME280;10218;42.874;25.320;2023-06-26T13:02:09;96879.19;;;23.73;100.00
20115;BME280;10218;42.874;25.320;2023-06-26T13:04:38;96870.69;;;24.06;100.00
20115;BME280;10218;42.874;25.320;2023-06-26T13:07:08;96878.50;;;23.93;100.00
20115;BME280;10218;42.874;25.320;2023-06-26T13:09:36;96888.88;;;23.54;100.00